Time;durP1;ratioP1;P1;durP2;ratioP2;P2;SDS_P1;SDS_P2;PMS_P1;PMS_P2;Temp;Humidity;BMP_temperature;BMP_pressure;BME280_temperature;BME280_humidity;BME280_pressure;Samples;Min_cycle;Max_cycle;Signal;HPM_P1;HPM_P2
2023/12/22 00:00:02;;;;;;;6.80;4.00;;;;;;;2.28;100.00;98457.77;108838;1258;59715;-55
2023/12/22 00:02:30;;;;;;;7.00;4.20;;;;;;;2.28;100.00;98456.52;108807;1259;58757;-55
2023/12/22 00:04:58;;;;;;;3.80;2.80;;;;;;;2.29;100.00;98452.44;108863;1254;73894;-55
2023/12/22 00:07:25;;;;;;;5.50;3.50;;;;;;;2.31;100.00;98450.94;108918;1255;65523;-55
2023/12/22 00:09:53;;;;;;;6.40;3.50;;;;;;;2.32;100.00;98450.53;109045;1254;71173;-55
2023/12/22 00:12:20;;;;;;;7.30;3.60;;;;;;;2.33;100.00;98445.55;108841;1256;59155;-56
2023/12/22 00:14:47;;;;;;;6.80;3.30;;;;;;;2.33;100.00;98440.95;108904;1255;105125;-56
2023/12/22 00:19:04;;;;;;;9.80;3.10;;;;;;;2.31;100.00;98511.31;102034;1291;600916;-54
2023/12/22 00:21:32;;;;;;;8.40;3.80;;;;;;;2.33;100.00;98557.59;103932;1273;59658;-54
2023/12/22 00:23:59;;;;;;;5.80;2.70;;;;;;;2.35;100.00;98540.58;103904;1271;59231;-55
2023/12/22 00:26:26;;;;;;;2.90;1.90;;;;;;;2.35;100.00;98526.58;104042;1266;72312;-55
2023/12/22 00:28:54;;;;;;;6.40;3.30;;;;;;;2.34;100.00;98506.41;103975;1272;68077;-55
2023/12/22 00:31:21;;;;;;;7.60;3.60;;;;;;;2.34;100.00;98491.91;103910;1270;71448;-55
2023/12/22 00:33:49;;;;;;;5.40;3.60;;;;;;;2.33;100.00;98483.98;103758;1269;130426;-56
2023/12/22 00:36:18;;;;;;;6.00;3.10;;;;;;;2.32;100.00;98483.84;104829;1266;60316;-53
2023/12/22 00:38:45;;;;;;;6.00;3.00;;;;;;;2.30;100.00;98475.02;103949;1266;71144;-54
2023/12/22 00:41:13;;;;;;;5.80;2.80;;;;;;;2.30;100.00;98456.80;104032;1266;66882;-52
2023/12/22 00:43:40;;;;;;;9.00;4.20;;;;;;;2.30;100.00;98447.45;103880;1265;71495;-53
2023/12/22 00:46:08;;;;;;;6.10;2.80;;;;;;;2.28;100.00;98431.58;103915;1266;59749;-55
2023/12/22 00:48:35;;;;;;;6.20;3.90;;;;;;;2.27;100.00;98420.79;104027;1264;60072;-54
2023/12/22 00:51:03;;;;;;;11.50;3.70;;;;;;;2.27;100.00;98416.75;104395;1263;73179;-54
2023/12/22 00:53:30;;;;;;;6.20;3.70;;;;;;;2.27;100.00;98410.35;104336;1271;66207;-57
2023/12/22 00:55:57;;;;;;;8.20;3.70;;;;;;;2.27;100.00;98402.20;104210;1271;71475;-54
2023/12/22 00:58:25;;;;;;;8.50;2.60;;;;;;;2.28;100.00;98387.31;104192;1266;59802;-57
2023/12/22 01:00:52;;;;;;;6.90;3.60;;;;;;;2.28;100.00;98376.52;104195;1261;60081;-54
2023/12/22 01:03:19;;;;;;;6.30;4.00;;;;;;;2.28;100.00;98379.70;106761;1265;70905;-56
2023/12/22 01:05:47;;;;;;;11.90;3.80;;;;;;;2.27;100.00;98374.41;104589;1263;67091;-56
2023/12/22 01:08:14;;;;;;;14.10;4.60;;;;;;;2.27;100.00;98367.18;104527;1262;71357;-55
2023/12/22 01:10:42;;;;;;;8.40;3.70;;;;;;;2.26;100.00;98360.31;104542;1259;61420;-55
2023/12/22 01:13:09;;;;;;;6.40;3.50;;;;;;;2.24;100.00;98358.94;104875;1256;59979;-55
2023/12/22 01:15:36;;;;;;;7.30;3.30;;;;;;;2.25;100.00;98350.44;104688;1257;74109;-54
2023/12/22 01:18:04;;;;;;;5.30;3.50;;;;;;;2.24;100.00;98343.54;104437;1262;64978;-52
2023/12/22 01:20:31;;;;;;;7.80;3.50;;;;;;;2.25;100.00;98345.13;104451;1263;72720;-53
2023/12/22 01:22:59;;;;;;;7.40;3.60;;;;;;;2.24;100.00;98342.84;104669;1263;59723;-57
2023/12/22 01:25:26;;;;;;;6.70;3.90;;;;;;;2.24;100.00;98341.26;104564;1259;59874;-55
2023/12/22 01:27:53;;;;;;;7.50;3.40;;;;;;;2.23;100.00;98335.08;104642;1260;73104;-54
2023/12/22 01:30:21;;;;;;;9.90;3.20;;;;;;;2.24;100.00;98340.89;104704;1257;68140;-57
2023/12/22 01:32:48;;;;;;;7.10;3.50;;;;;;;2.24;100.00;98335.05;104577;1257;72751;-54
2023/12/22 01:35:15;;;;;;;4.60;3.60;;;;;;;2.25;100.00;98332.36;104673;1260;59686;-54
2023/12/22 01:37:43;;;;;;;6.50;3.50;;;;;;;2.26;100.00;98334.30;104670;1257;59666;-53
2023/12/22 01:40:10;;;;;;;4.70;3.30;;;;;;;2.26;100.00;98335.18;104761;1261;71872;-57
2023/12/22 01:42:39;;;;;;;11.40;4.00;;;;;;;2.25;100.00;98333.05;104717;1263;65819;-58
2023/12/22 01:45:07;;;;;;;6.00;4.00;;;;;;;2.26;100.00;98326.51;104585;1258;72693;-56
2023/12/22 01:47:35;;;;;;;6.60;3.30;;;;;;;2.26;100.00;98320.99;104438;1260;59793;-56
2023/12/22 01:50:03;;;;;;;4.90;3.30;;;;;;;2.27;100.00;98311.59;104986;1262;60103;-56
2023/12/22 01:52:30;;;;;;;10.00;4.10;;;;;;;2.29;100.00;98303.05;104730;1259;73128;-53
2023/12/22 01:54:58;;;;;;;6.50;3.20;;;;;;;2.30;100.00;98292.17;104549;1263;69165;-53
2023/12/22 01:57:25;;;;;;;5.10;3.40;;;;;;;2.32;100.00;98291.05;104694;1263;71672;-57
2023/12/22 01:59:52;;;;;;;6.30;3.60;;;;;;;2.32;100.00;98282.54;104458;1263;59704;-56
2023/12/22 02:02:20;;;;;;;4.80;4.20;;;;;;;2.32;100.00;98275.48;104535;1256;60127;-55
2023/12/22 02:04:47;;;;;;;7.20;2.50;;;;;;;2.31;100.00;98273.20;104653;1261;72057;-57
2023/12/22 02:07:15;;;;;;;7.80;4.60;;;;;;;2.31;100.00;98268.62;104595;1267;65449;-56
2023/12/22 02:09:42;;;;;;;9.40;5.10;;;;;;;2.30;100.00;98271.98;104525;1257;72783;-55
2023/12/22 02:12:10;;;;;;;9.50;4.30;;;;;;;2.30;100.00;98272.20;104646;1263;59720;-56
2023/12/22 02:14:37;;;;;;;6.70;4.50;;;;;;;2.30;100.00;98263.90;106944;1257;60526;-55
2023/12/22 02:17:08;;;;;;;7.70;4.00;;;;;;;2.28;100.00;98262.71;105165;1258;72176;-56
2023/12/22 02:19:38;;;;;;;6.30;4.00;;;;;;;2.28;100.00;98259.35;104600;1256;65833;-56
2023/12/22 02:22:06;;;;;;;5.70;2.60;;;;;;;2.29;100.00;98253.66;104547;1258;72569;-54
2023/12/22 02:24:37;;;;;;;5.00;3.80;;;;;;;2.30;100.00;98244.95;104626;1260;59579;-54
2023/12/22 02:27:27;;;;;;;9.10;3.70;;;;;;;2.31;100.00;98239.23;105041;1257;59685;-57
2023/12/22 02:29:59;;;;;;;7.80;3.50;;;;;;;2.33;100.00;98250.48;104431;1263;71896;-55
2023/12/22 02:32:32;;;;;;;7.00;3.90;;;;;;;2.33;100.00;98249.05;104340;1263;65618;-57
2023/12/22 02:35:02;;;;;;;9.30;5.40;;;;;;;2.34;100.00;98251.86;104695;1261;72774;-56
2023/12/22 02:37:29;;;;;;;7.30;4.00;;;;;;;2.34;100.00;98250.80;108675;1257;59915;-58
2023/12/22 02:39:57;;;;;;;9.90;4.10;;;;;;;2.33;100.00;98245.70;108679;1257;58733;-57
2023/12/22 02:42:29;;;;;;;5.20;3.00;;;;;;;2.33;100.00;98239.85;108881;1258;73559;-56
2023/12/22 02:44:58;;;;;;;6.30;4.30;;;;;;;2.34;100.00;98240.72;108781;1257;65045;-56
2023/12/22 02:47:27;;;;;;;5.40;3.20;;;;;;;2.34;100.00;98233.45;107728;1263;72671;-57
2023/12/22 02:49:55;;;;;;;8.40;3.20;;;;;;;2.36;100.00;98230.02;108690;1256;59349;-57
2023/12/22 02:52:22;;;;;;;9.20;4.00;;;;;;;2.37;100.00;98223.60;108686;1262;58244;-57
2023/12/22 02:54:50;;;;;;;6.70;4.70;;;;;;;2.37;100.00;98222.54;108850;1258;73618;-58
2023/12/22 02:57:17;;;;;;;6.90;5.20;;;;;;;2.36;100.00;98217.64;108719;1257;65952;-56
2023/12/22 02:59:44;;;;;;;7.40;4.10;;;;;;;2.34;100.00;98211.48;108802;1257;72552;-59
2023/12/22 03:02:12;;;;;;;4.10;3.20;;;;;;;2.34;100.00;98210.77;108713;1260;62490;-58
2023/12/22 03:04:40;;;;;;;5.80;4.10;;;;;;;2.34;100.00;98201.94;108685;1263;59953;-57
2023/12/22 03:07:07;;;;;;;6.60;3.70;;;;;;;2.34;100.00;98202.28;109009;1257;71859;-58
2023/12/22 03:09:34;;;;;;;5.60;4.10;;;;;;;2.36;100.00;98196.21;108964;1256;67055;-59
2023/12/22 03:12:06;;;;;;;6.00;3.80;;;;;;;2.36;100.00;98188.76;108813;1256;72747;-57
2023/12/22 03:14:34;;;;;;;5.50;4.20;;;;;;;2.35;100.00;98183.65;108806;1258;58017;-58
2023/12/22 03:17:02;;;;;;;7.20;4.10;;;;;;;2.35;100.00;98174.64;109021;1258;60080;-58
2023/12/22 03:19:30;;;;;;;7.50;4.00;;;;;;;2.35;100.00;98180.30;105719;1257;73014;-56
2023/12/22 03:21:57;;;;;;;5.50;4.20;;;;;;;2.34;100.00;98179.81;104663;1258;66076;-57
2023/12/22 03:24:25;;;;;;;5.50;3.80;;;;;;;2.34;100.00;98184.06;104637;1256;72514;-56
2023/12/22 03:26:55;;;;;;;4.70;3.30;;;;;;;2.35;100.00;98185.80;104781;1261;59743;-57
2023/12/22 03:29:23;;;;;;;7.40;4.30;;;;;;;2.34;100.00;98180.86;104621;1257;60410;-55
2023/12/22 03:31:50;;;;;;;8.00;4.00;;;;;;;2.33;100.00;98168.14;104921;1263;73025;-53
2023/12/22 03:34:18;;;;;;;6.10;4.70;;;;;;;2.33;100.00;98173.48;105855;1259;67620;-57
2023/12/22 03:36:48;;;;;;;7.70;3.50;;;;;;;2.32;100.00;98166.60;104975;1258;71492;-56
2023/12/22 03:39:16;;;;;;;4.80;3.10;;;;;;;2.32;100.00;98159.89;105158;1256;59723;-56
2023/12/22 03:41:43;;;;;;;8.60;4.20;;;;;;;2.32;100.00;98145.55;104630;1256;59570;-59
2023/12/22 03:44:11;;;;;;;6.40;3.50;;;;;;;2.31;100.00;98153.73;104701;1260;72771;-57
2023/12/22 03:46:38;;;;;;;6.40;3.60;;;;;;;2.31;100.00;98155.33;104576;1258;68103;-57
2023/12/22 03:49:05;;;;;;;5.40;3.90;;;;;;;2.31;100.00;98165.22;104618;1257;71671;-56
2023/12/22 03:51:33;;;;;;;5.60;3.00;;;;;;;2.31;100.00;98176.38;104832;1260;61444;-58
2023/12/22 03:54:00;;;;;;;4.30;2.90;;;;;;;2.29;100.00;98190.61;104737;1260;59352;-55
2023/12/22 03:56:28;;;;;;;4.80;3.30;;;;;;;2.29;100.00;98195.42;104710;1255;73101;-57
2023/12/22 03:58:55;;;;;;;6.00;4.30;;;;;;;2.29;100.00;98201.45;104710;1260;66782;-54
2023/12/22 04:01:23;;;;;;;8.20;4.50;;;;;;;2.27;100.00;98197.41;106304;1257;73005;-55
2023/12/22 04:03:50;;;;;;;5.80;5.00;;;;;;;2.28;100.00;98194.76;104776;1260;61496;-57
2023/12/22 04:06:17;;;;;;;5.50;4.50;;;;;;;2.28;100.00;98188.19;104651;1258;59602;-53
2023/12/22 04:08:45;;;;;;;7.50;5.20;;;;;;;2.27;100.00;98191.05;104761;1260;73132;-53
2023/12/22 04:11:12;;;;;;;7.30;5.20;;;;;;;2.25;100.00;98189.52;104532;1260;67587;-60
2023/12/22 04:13:39;;;;;;;6.90;4.60;;;;;;;2.24;100.00;98183.02;104742;1257;71780;-55
2023/12/22 04:16:07;;;;;;;4.50;3.10;;;;;;;2.23;100.00;98177.41;104765;1257;59960;-56
2023/12/22 04:18:34;;;;;;;6.70;4.90;;;;;;;2.23;100.00;98171.22;104669;1260;60703;-54
2023/12/22 04:21:02;;;;;;;5.50;4.60;;;;;;;2.21;100.00;98168.97;104956;1257;73064;-57
2023/12/22 04:23:29;;;;;;;5.20;3.50;;;;;;;2.21;100.00;98168.47;104752;1259;65745;-55
2023/12/22 04:25:57;;;;;;;6.20;3.80;;;;;;;2.21;100.00;98163.37;104816;1257;71428;-55
2023/12/22 04:28:24;;;;;;;9.60;5.10;;;;;;;2.20;100.00;98160.54;105097;1260;60510;-57
2023/12/22 04:30:51;;;;;;;8.00;4.60;;;;;;;2.20;100.00;98155.95;105030;1260;60408;-55
2023/12/22 04:33:19;;;;;;;7.60;3.90;;;;;;;2.19;100.00;98143.94;104910;1261;74068;-58
2023/12/22 04:35:46;;;;;;;6.50;3.80;;;;;;;2.19;100.00;98134.55;105219;1261;65554;-52
2023/12/22 04:38:14;;;;;;;6.50;4.40;;;;;;;2.19;100.00;98121.66;104933;1261;73163;-55
2023/12/22 04:40:41;;;;;;;3.70;3.20;;;;;;;2.18;100.00;98126.13;104844;1260;60429;-56
2023/12/22 04:43:09;;;;;;;6.00;3.90;;;;;;;2.16;100.00;98122.50;104854;1261;60322;-55
2023/12/22 04:45:36;;;;;;;6.30;3.90;;;;;;;2.13;100.00;98127.38;104917;1260;73836;-56
2023/12/22 04:48:04;;;;;;;7.70;4.80;;;;;;;2.11;100.00;98128.36;104673;1257;67034;-57
2023/12/22 04:50:31;;;;;;;7.30;4.90;;;;;;;2.09;100.00;98131.77;105465;1257;71514;-54
2023/12/22 04:52:59;;;;;;;4.20;3.40;;;;;;;2.08;100.00;98128.99;104846;1260;60517;-53
2023/12/22 04:55:26;;;;;;;4.80;4.10;;;;;;;2.08;100.00;98126.70;104829;1258;61134;-52
2023/12/22 04:57:53;;;;;;;5.30;4.20;;;;;;;2.08;100.00;98124.05;104854;1257;72573;-55
2023/12/22 05:00:21;;;;;;;5.30;4.00;;;;;;;2.08;100.00;98117.30;104846;1256;67595;-58
2023/12/22 05:02:48;;;;;;;5.70;3.60;;;;;;;2.09;100.00;98116.58;105038;1257;72785;-56
2023/12/22 05:05:16;;;;;;;4.60;3.60;;;;;;;2.08;100.00;98121.56;104702;1260;60546;-54
2023/12/22 05:07:43;;;;;;;6.90;4.80;;;;;;;2.06;100.00;98109.77;104998;1257;61962;-55
2023/12/22 05:10:10;;;;;;;4.60;4.00;;;;;;;2.05;100.00;98111.06;105603;1257;71951;-58
2023/12/22 05:12:38;;;;;;;8.40;3.80;;;;;;;2.03;100.00;98105.13;104889;1254;66710;-55
2023/12/22 05:15:06;;;;;;;8.30;4.30;;;;;;;2.01;100.00;98101.50;105403;1257;72497;-55
2023/12/22 05:17:34;;;;;;;5.60;4.30;;;;;;;2.00;100.00;98098.19;105529;1260;59896;-55
2023/12/22 05:20:01;;;;;;;7.10;3.70;;;;;;;1.99;100.00;98094.33;105346;1257;60579;-57
2023/12/22 05:22:32;;;;;;;7.90;4.40;;;;;;;1.97;100.00;98088.20;104706;1260;74841;-57
2023/12/22 05:25:03;;;;;;;9.30;5.00;;;;;;;1.94;100.00;98086.24;106871;1257;66535;-57
2023/12/22 05:27:31;;;;;;;6.30;4.20;;;;;;;1.91;100.00;98082.44;104776;1261;70737;-56
2023/12/22 05:30:03;;;;;;;3.70;2.90;;;;;;;1.88;100.00;98071.07;104918;1256;61453;-57
2023/12/22 05:32:31;;;;;;;7.10;4.50;;;;;;;1.86;100.00;98077.34;104794;1257;60348;-55
2023/12/22 05:34:58;;;;;;;6.90;5.10;;;;;;;1.87;100.00;98079.09;104889;1256;72764;-55
2023/12/22 05:37:25;;;;;;;8.00;5.60;;;;;;;1.86;100.00;98077.52;104638;1257;66239;-56
2023/12/22 05:39:53;;;;;;;9.10;5.80;;;;;;;1.87;100.00;98062.99;104616;1258;73414;-57
2023/12/22 05:42:21;;;;;;;13.30;6.30;;;;;;;1.86;100.00;98067.27;104813;1257;60473;-58
2023/12/22 05:44:49;;;;;;;10.60;5.30;;;;;;;1.86;100.00;98080.20;104591;1260;60389;-55
2023/12/22 05:47:17;;;;;;;10.40;6.70;;;;;;;1.85;100.00;98076.84;108906;1257;72603;-59
2023/12/22 05:49:45;;;;;;;9.50;6.40;;;;;;;1.86;100.00;98071.35;108985;1256;67454;-55
2023/12/22 05:52:12;;;;;;;22.10;13.20;;;;;;;1.86;100.00;98062.46;108942;1257;72767;-56
2023/12/22 05:54:40;;;;;;;20.50;12.60;;;;;;;1.87;100.00;98062.41;109006;1256;58584;-56
2023/12/22 05:57:07;;;;;;;16.80;12.00;;;;;;;1.89;100.00;98062.54;108992;1254;58520;-57
2023/12/22 05:59:34;;;;;;;18.80;12.50;;;;;;;1.91;100.00;98063.89;107766;1257;74243;-57
2023/12/22 06:02:02;;;;;;;40.30;24.70;;;;;;;1.93;100.00;98062.58;104855;1260;67115;-54
2023/12/22 06:04:30;;;;;;;41.30;21.70;;;;;;;1.93;100.00;98059.75;107619;1257;72052;-54
2023/12/22 06:06:58;;;;;;;76.50;42.90;;;;;;;1.92;100.00;98055.52;108995;1256;61271;-55
2023/12/22 06:09:26;;;;;;;74.90;43.60;;;;;;;1.93;100.00;98051.08;105621;1260;60422;-60
2023/12/22 06:11:53;;;;;;;25.90;14.60;;;;;;;1.93;100.00;98055.86;104869;1259;73053;-58
2023/12/22 06:14:21;;;;;;;68.70;34.70;;;;;;;1.92;100.00;98050.21;104788;1258;66840;-54
2023/12/22 06:16:48;;;;;;;76.00;41.00;;;;;;;1.91;100.00;98045.11;105004;1258;72770;-56
2023/12/22 06:19:16;;;;;;;53.90;29.20;;;;;;;1.91;100.00;98038.92;104972;1257;60562;-57
2023/12/22 06:21:44;;;;;;;38.30;21.80;;;;;;;1.91;100.00;98036.81;105775;1254;60444;-55
2023/12/22 06:24:11;;;;;;;71.30;39.40;;;;;;;1.89;100.00;98037.23;105265;1253;72640;-56
2023/12/22 06:26:38;;;;;;;129.70;69.70;;;;;;;1.87;100.00;98033.23;105014;1254;67101;-56
2023/12/22 06:29:06;;;;;;;51.10;28.80;;;;;;;1.86;100.00;98023.40;105167;1257;72703;-54
2023/12/22 06:31:33;;;;;;;72.30;38.60;;;;;;;1.86;100.00;98019.88;105196;1254;60370;-56
2023/12/22 06:34:02;;;;;;;45.60;25.30;;;;;;;1.85;100.00;98016.54;105174;1257;61137;-56
2023/12/22 06:36:30;;;;;;;29.00;17.20;;;;;;;1.85;100.00;98025.03;105559;1257;72418;-55
2023/12/22 06:38:57;;;;;;;27.50;17.00;;;;;;;1.85;100.00;98023.62;105254;1255;65950;-56
2023/12/22 06:41:26;;;;;;;19.40;12.40;;;;;;;1.83;100.00;98015.90;105179;1254;72739;-55
2023/12/22 06:43:55;;;;;;;19.40;11.20;;;;;;;1.83;100.00;98014.49;104931;1259;60290;-57
2023/12/22 06:46:27;;;;;;;14.30;8.20;;;;;;;1.83;100.00;98008.12;105306;1253;60444;-54
2023/12/22 06:48:55;;;;;;;11.20;6.80;;;;;;;1.83;100.00;98008.31;104786;1257;74840;-59
2023/12/22 06:51:27;;;;;;;14.80;9.10;;;;;;;1.83;100.00;98005.13;107374;1259;66788;-58
2023/12/22 06:53:55;;;;;;;17.10;10.20;;;;;;;1.82;100.00;97996.48;104838;1254;71611;-56
2023/12/22 06:56:25;;;;;;;15.10;9.30;;;;;;;1.83;100.00;97998.05;105599;1254;60418;-54
2023/12/22 06:58:53;;;;;;;9.50;6.30;;;;;;;1.84;100.00;97999.77;105263;1257;60431;-56
2023/12/22 07:01:28;;;;;;;13.90;7.30;;;;;;;1.84;100.00;97995.91;105432;1257;73750;-57
2023/12/22 07:03:57;;;;;;;8.10;6.00;;;;;;;1.84;100.00;97996.61;105175;1254;66105;-57
2023/12/22 07:06:26;;;;;;;5.80;4.80;;;;;;;1.83;100.00;97990.26;105350;1254;71497;-60
2023/12/22 07:09:12;;;;;;;6.10;4.00;;;;;;;1.83;100.00;97997.15;105054;1254;60845;-57
2023/12/22 07:11:40;;;;;;;7.10;5.00;;;;;;;1.83;100.00;97998.40;104892;1254;60543;-56
2023/12/22 07:14:08;;;;;;;10.10;5.40;;;;;;;1.82;100.00;97981.11;105306;1257;73798;-58
2023/12/22 07:16:38;;;;;;;6.90;4.90;;;;;;;1.81;100.00;97980.43;105101;1253;66088;-54
2023/12/22 07:19:05;;;;;;;7.50;5.00;;;;;;;1.78;100.00;97976.34;104685;1253;73223;-57
2023/12/22 07:21:33;;;;;;;6.20;3.40;;;;;;;1.77;100.00;97976.02;104863;1257;61816;-54
2023/12/22 07:24:00;;;;;;;8.00;5.00;;;;;;;1.76;100.00;97973.42;104722;1254;60539;-59
2023/12/22 07:26:28;;;;;;;7.60;4.80;;;;;;;1.74;100.00;97968.54;104912;1260;72007;-55
2023/12/22 07:28:55;;;;;;;7.70;5.40;;;;;;;1.73;100.00;97964.86;104893;1258;67098;-57
2023/12/22 07:31:23;;;;;;;8.40;5.20;;;;;;;1.72;100.00;97953.75;104978;1256;72683;-56
2023/12/22 07:33:51;;;;;;;6.70;5.10;;;;;;;1.72;100.00;97948.46;105332;1254;61361;-52
2023/12/22 07:36:19;;;;;;;6.90;4.80;;;;;;;1.71;100.00;97955.41;105195;1254;60485;-56
2023/12/22 07:38:49;;;;;;;7.50;5.90;;;;;;;1.71;100.00;97952.92;104926;1257;73807;-55
2023/12/22 07:41:16;;;;;;;9.70;5.60;;;;;;;1.70;100.00;97948.76;104771;1254;66195;-58
2023/12/22 07:43:45;;;;;;;7.60;5.20;;;;;;;1.70;100.00;97948.04;105650;1254;71982;-55
2023/12/22 07:46:19;;;;;;;6.10;4.70;;;;;;;1.70;100.00;97944.66;105175;1254;60526;-54
2023/12/22 07:48:47;;;;;;;;;;;;;;;1.71;100.00;97947.95;104838;1258;60537;-56
2023/12/22 07:51:16;;;;;;;9.00;5.40;;;;;;;1.73;100.00;97945.75;104926;1253;72647;-55
2023/12/22 07:53:44;;;;;;;9.40;6.00;;;;;;;1.74;100.00;97937.05;105461;1253;67049;-57
2023/12/22 07:56:11;;;;;;;6.40;4.50;;;;;;;1.75;100.00;97943.40;104914;1256;71465;-58
2023/12/22 07:58:39;;;;;;;13.40;6.80;;;;;;;1.76;100.00;97945.48;104924;1254;62636;-54
2023/12/22 08:01:07;;;;;;;7.90;5.30;;;;;;;1.78;100.00;97943.81;105970;1254;60516;-55
2023/12/22 08:03:34;;;;;;;6.40;4.50;;;;;;;1.79;100.00;97943.89;104746;1252;72675;-55
2023/12/22 08:06:02;;;;;;;12.50;5.90;;;;;;;1.82;100.00;97939.39;105207;1254;66816;-52
2023/12/22 08:08:29;;;;;;;7.00;4.80;;;;;;;1.84;100.00;97937.17;104740;1254;72679;-54
2023/12/22 08:10:57;;;;;;;7.90;5.00;;;;;;;1.85;100.00;97935.52;104967;1257;60523;-55
2023/12/22 08:13:24;;;;;;;10.00;5.30;;;;;;;1.87;100.00;97932.45;107553;1253;60533;-53
2023/12/22 08:15:53;;;;;;;6.60;4.80;;;;;;;1.88;100.00;97927.08;107353;1257;73796;-54
2023/12/22 08:18:20;;;;;;;6.30;4.00;;;;;;;1.90;100.00;97925.94;104974;1254;66229;-54
2023/12/22 08:20:49;;;;;;;7.30;4.40;;;;;;;1.92;100.00;97923.93;104991;1254;72702;-54
2023/12/22 08:23:17;;;;;;;8.50;5.20;;;;;;;1.94;100.00;97922.23;104890;1254;60297;-53
2023/12/22 08:25:46;;;;;;;11.80;5.80;;;;;;;1.98;100.00;97926.48;105209;1253;60457;-53
2023/12/22 08:28:13;;;;;;;6.00;3.70;;;;;;;2.02;100.00;97930.21;104941;1254;73840;-54
2023/12/22 08:30:41;;;;;;;6.70;4.20;;;;;;;2.06;100.00;97922.79;104690;1257;65649;-54
2023/12/22 08:33:09;;;;;;;10.80;4.80;;;;;;;2.08;100.00;97914.71;104840;1253;72790;-54
2023/12/22 08:35:36;;;;;;;8.00;3.90;;;;;;;2.11;100.00;97916.56;104837;1254;60558;-54
2023/12/22 08:38:03;;;;;;;9.30;4.80;;;;;;;2.13;100.00;97914.85;105059;1258;60546;-55
2023/12/22 08:40:31;;;;;;;5.80;4.30;;;;;;;2.14;100.00;97925.41;109132;1253;72614;-57
2023/12/22 08:42:59;;;;;;;5.80;3.90;;;;;;;2.16;100.00;97933.67;109229;1253;65792;-57
2023/12/22 08:45:31;;;;;;;5.60;3.90;;;;;;;2.18;100.00;97929.48;109188;1253;71865;-55
2023/12/22 08:47:58;;;;;;;10.50;5.30;;;;;;;2.20;100.00;97921.09;109140;1254;58582;-55
2023/12/22 08:50:26;;;;;;;8.70;4.80;;;;;;;2.22;100.00;97915.88;109132;1254;59746;-56
2023/12/22 08:52:53;;;;;;;10.00;4.70;;;;;;;2.24;100.00;97911.36;109134;1253;73774;-55
2023/12/22 08:55:20;;;;;;;12.00;4.90;;;;;;;2.27;100.00;97914.21;109130;1253;65495;-56
2023/12/22 08:57:48;;;;;;;7.20;5.00;;;;;;;2.31;100.00;97914.05;109032;1254;72763;-57
2023/12/22 09:00:26;;;;;;;8.10;5.20;;;;;;;2.34;100.00;97924.38;108798;1254;59250;-53
2023/12/22 09:02:53;;;;;;;10.20;4.30;;;;;;;2.38;100.00;97922.96;105277;1254;60492;-56
2023/12/22 09:05:21;;;;;;;9.80;4.90;;;;;;;2.41;100.00;97917.70;109080;1253;72740;-56
2023/12/22 09:07:49;;;;;;;6.20;4.30;;;;;;;2.42;100.00;97913.93;109018;1254;65742;-57
2023/12/22 09:10:17;;;;;;;10.80;8.00;;;;;;;2.45;100.00;97924.26;109099;1254;70357;-55
2023/12/22 09:12:45;;;;;;;11.40;5.30;;;;;;;2.46;100.00;97925.27;109186;1253;60890;-54
2023/12/22 09:15:12;;;;;;;7.50;5.10;;;;;;;2.47;100.00;97922.73;105235;1257;60675;-54
2023/12/22 09:17:41;;;;;;;13.30;7.70;;;;;;;2.47;100.00;97924.29;104794;1254;72685;-52
2023/12/22 09:20:12;;;;;;;8.20;5.00;;;;;;;2.49;100.00;97929.20;105029;1253;67526;-54
2023/12/22 09:22:39;;;;;;;9.50;5.10;;;;;;;2.49;100.00;97930.58;105297;1257;71867;-54
2023/12/22 09:25:08;;;;;;;9.70;5.20;;;;;;;2.49;100.00;97933.45;109138;1253;58595;-57
2023/12/22 09:27:36;;;;;;;7.30;5.70;;;;;;;2.48;100.00;97932.23;105084;1254;60591;-59
2023/12/22 09:30:06;;;;;;;6.40;4.40;;;;;;;2.47;100.00;97925.05;104853;1254;73884;-56
2023/12/22 09:32:34;;;;;;;7.50;4.80;;;;;;;2.45;100.00;97924.96;105475;1256;67672;-52
2023/12/22 09:35:02;;;;;;;4.00;3.60;;;;;;;2.43;100.00;97918.67;105224;1254;71602;-52
2023/12/22 09:37:30;;;;;;;6.70;4.90;;;;;;;2.42;100.00;97920.64;104747;1254;60447;-54
2023/12/22 09:39:58;;;;;;;5.60;4.70;;;;;;;2.42;100.00;97911.09;105003;1256;60766;-53
2023/12/22 09:42:25;;;;;;;7.60;5.40;;;;;;;2.43;100.00;97911.08;104945;1254;72645;-53
2023/12/22 09:44:54;;;;;;;8.00;5.20;;;;;;;2.42;100.00;97911.63;104797;1254;66156;-55
2023/12/22 09:47:21;;;;;;;6.10;4.50;;;;;;;2.42;100.00;97914.84;105078;1254;72735;-55
2023/12/22 09:49:49;;;;;;;6.30;4.40;;;;;;;2.42;100.00;97912.35;105577;1254;60361;-58
2023/12/22 09:52:16;;;;;;;7.80;4.60;;;;;;;2.42;100.00;97916.07;104930;1257;60341;-55
2023/12/22 09:54:44;;;;;;;7.50;5.10;;;;;;;2.40;100.00;97912.98;104670;1256;76456;-58
2023/12/22 09:57:11;;;;;;;5.70;5.10;;;;;;;2.37;100.00;97913.62;104774;1257;65622;-56
2023/12/22 09:59:52;;;;;;;7.60;5.40;;;;;;;2.36;100.00;97923.23;104960;1254;74433;-54
2023/12/22 10:02:20;;;;;;;6.50;4.70;;;;;;;2.34;100.00;97920.47;104736;1259;60572;-57
2023/12/22 10:04:47;;;;;;;7.10;5.00;;;;;;;2.32;100.00;97902.69;104772;1257;60523;-55
2023/12/22 10:07:15;;;;;;;5.40;4.10;;;;;;;2.31;100.00;97896.20;104807;1253;73900;-54
2023/12/22 10:09:42;;;;;;;9.30;5.10;;;;;;;2.31;100.00;97889.30;104857;1259;67076;-57
2023/12/22 10:12:11;;;;;;;7.10;4.90;;;;;;;2.31;100.00;97890.00;104981;1257;73726;-57
2023/12/22 10:14:38;;;;;;;9.10;5.50;;;;;;;2.31;100.00;97889.81;104744;1257;60715;-53
2023/12/22 10:17:07;;;;;;;7.70;5.00;;;;;;;2.32;100.00;97894.74;105309;1259;60552;-55
2023/12/22 10:19:35;;;;;;;7.10;5.00;;;;;;;2.31;100.00;97894.05;108084;1256;73931;-58
2023/12/22 10:22:03;;;;;;;5.70;4.00;;;;;;;2.31;100.00;97885.41;104982;1257;65632;-54
2023/12/22 10:24:44;;;;;;;7.30;4.40;;;;;;;2.31;100.00;97890.02;105836;1253;72450;-52
2023/12/22 10:27:11;;;;;;;5.60;4.10;;;;;;;2.31;100.00;97887.69;105111;1257;60415;-54
2023/12/22 10:29:39;;;;;;;14.20;7.60;;;;;;;2.32;100.00;97879.15;105142;1254;60440;-53
2023/12/22 10:32:08;;;;;;;7.40;6.30;;;;;;;2.33;100.00;97878.41;105130;1253;72638;-54
2023/12/22 10:34:36;;;;;;;8.10;4.90;;;;;;;2.33;100.00;97879.31;108323;1254;67630;-50
2023/12/22 10:37:04;;;;;;;6.10;4.70;;;;;;;2.32;100.00;97875.96;105488;1254;72171;-55
2023/12/22 10:39:31;;;;;;;6.90;5.60;;;;;;;2.32;100.00;97871.70;104720;1254;60567;-55
2023/12/22 10:41:59;;;;;;;6.80;5.10;;;;;;;2.33;100.00;97862.30;105503;1257;60352;-57
2023/12/22 10:44:27;;;;;;;8.90;4.70;;;;;;;2.34;100.00;97864.92;105307;1253;73823;-58
2023/12/22 10:46:55;;;;;;;13.40;5.20;;;;;;;2.36;100.00;97861.48;105128;1256;65658;-55
2023/12/22 10:49:23;;;;;;;10.60;6.60;;;;;;;2.38;100.00;97859.44;106158;1254;71453;-54
2023/12/22 10:51:50;;;;;;;10.60;6.20;;;;;;;2.38;100.00;97853.75;106344;1253;60434;-59
2023/12/22 10:54:18;;;;;;;8.30;6.40;;;;;;;2.39;100.00;97842.52;105074;1254;60463;-53
2023/12/22 10:56:46;;;;;;;11.00;7.30;;;;;;;2.42;100.00;97842.23;104778;1254;75236;-54
2023/12/22 10:59:17;;;;;;;12.40;8.70;;;;;;;2.44;100.00;97848.70;104970;1254;67286;-56
2023/12/22 11:01:44;;;;;;;9.40;6.30;;;;;;;2.46;100.00;97856.21;105047;1254;73134;-55
2023/12/22 11:04:13;;;;;;;7.60;6.40;;;;;;;2.48;100.00;97856.81;104828;1257;60419;-56
2023/12/22 11:06:41;;;;;;;7.90;6.40;;;;;;;2.49;100.00;97850.73;104802;1257;60588;-58
2023/12/22 11:09:10;;;;;;;11.00;6.00;;;;;;;2.51;100.00;97850.13;105053;1252;72986;-58
2023/12/22 11:11:38;;;;;;;7.70;5.90;;;;;;;2.52;100.00;97847.79;104715;1254;67065;-54
2023/12/22 11:14:06;;;;;;;8.00;5.40;;;;;;;2.54;100.00;97847.88;104694;1257;72714;-58
2023/12/22 11:16:34;;;;;;;5.50;4.90;;;;;;;2.57;100.00;97850.75;105681;1253;61084;-52
2023/12/22 11:19:02;;;;;;;7.10;5.40;;;;;;;2.59;100.00;97844.61;105065;1257;60466;-58
2023/12/22 11:21:30;;;;;;;5.20;4.70;;;;;;;2.62;100.00;97848.39;104749;1253;72640;-53
2023/12/22 11:23:57;;;;;;;7.70;6.40;;;;;;;2.64;100.00;97853.75;104954;1254;66849;-57
2023/12/22 11:26:25;;;;;;;12.30;7.40;;;;;;;2.66;100.00;97862.50;104657;1259;71882;-56